createdAt,value
2023-04-15T00:41:59.162Z,5.1
2023-04-15T01:00:18.648Z,6.2
2023-04-15T02:03:04.132Z,6.8
2023-04-15T04:40:19.436Z,7
2023-04-15T08:26:50.304Z,12.1
2023-04-15T08:46:40.318Z,14
2023-04-15T08:53:08.400Z,12.5
2023-04-15T08:59:09.580Z,12.9
2023-04-15T09:05:04.164Z,12.6
2023-04-15T09:37:41.439Z,10.5
2023-04-15T09:44:03.981Z,4.9
2023-04-15T09:50:17.752Z,5.7
2023-04-15T09:56:15.154Z,4.8
2023-04-15T10:02:11.616Z,4.1
2023-04-15T10:08:25.305Z,2.8
2023-04-15T10:14:25.814Z,5.1
2023-04-15T10:20:32.447Z,3
2023-04-15T10:26:40.163Z,4.9
2023-04-15T10:32:34.107Z,4.2
2023-04-15T10:38:30.205Z,4
2023-04-15T10:44:28.656Z,2.6
2023-04-15T10:50:40.169Z,2.9
2023-04-15T10:56:55.890Z,4.4
2023-04-15T11:30:18.791Z,4.3
2023-04-15T11:43:32.901Z,7.3
2023-04-15T11:51:16.468Z,6.8
2023-04-15T12:31:44.737Z,3.5
2023-04-15T13:11:18.183Z,4.3
2023-04-15T13:17:26.095Z,4.6
2023-04-15T13:24:01.790Z,4.5
2023-04-15T13:30:19.334Z,4.2
2023-04-15T13:50:01.820Z,5.7
2023-04-15T13:56:03.858Z,6
2023-04-15T14:08:17.520Z,7
2023-04-15T14:14:30.386Z,10.4
2023-04-15T14:20:23.969Z,9.4
2023-04-15T14:26:38.703Z,12.2
2023-04-15T14:39:17.066Z,12.6
2023-04-15T14:57:27.355Z,14.3
2023-04-15T15:10:59.779Z,13.2
2023-04-15T15:17:08.096Z,11.9
2023-04-15T15:23:14.520Z,14.7
2023-04-15T16:03:11.533Z,18.7
2023-04-15T16:09:27.977Z,19.8
2023-04-15T16:15:30.147Z,20.1
2023-04-15T16:21:23.392Z,20.7
2023-04-15T16:34:14.632Z,21
2023-04-15T16:40:14.976Z,26.7
2023-04-15T16:46:21.740Z,25
2023-04-15T16:52:12.150Z,23.4
2023-04-15T16:58:12.310Z,19.2
2023-04-15T17:04:07.194Z,18.3
2023-04-15T17:10:06.263Z,18.4
2023-04-15T17:16:02.297Z,19.1
2023-04-15T17:22:01.176Z,19.3
2023-04-15T17:27:53.153Z,22.2
2023-04-15T17:34:18.116Z,19
2023-04-15T17:40:35.045Z,20.2
2023-04-15T17:46:36.278Z,19.5
2023-04-15T17:53:17.835Z,21.2
2023-04-15T18:05:24.808Z,24
2023-04-15T18:44:47.680Z,21.8
2023-04-15T18:50:42.171Z,21.8
2023-04-15T18:56:36.463Z,31
2023-04-15T19:02:31.463Z,37.4
2023-04-15T19:08:37.178Z,33.8
2023-04-15T19:14:44.629Z,35.4
2023-04-15T19:20:45.169Z,32.9
2023-04-15T19:26:53.127Z,35.7
2023-04-15T19:33:03.583Z,32.6
2023-04-15T19:39:00.526Z,37.8
2023-04-15T19:44:56.455Z,40.9
2023-04-15T19:50:49.517Z,45
2023-04-15T19:56:42.410Z,42.1
2023-04-15T20:02:37.277Z,36.8
2023-04-15T20:14:25.106Z,38.1
2023-04-15T20:20:27.650Z,36.5
2023-04-15T20:27:01.496Z,35.9
2023-04-15T20:33:19.489Z,36.4
2023-04-15T20:39:40.031Z,34.7
2023-04-15T20:46:06.950Z,28
2023-04-15T20:52:08.470Z,29.2
2023-04-15T20:58:03.266Z,37.5
2023-04-15T21:03:56.477Z,42.7
2023-04-15T21:09:51.181Z,45.4
2023-04-15T21:15:55.921Z,41.5
2023-04-15T21:22:00.391Z,43
2023-04-15T21:27:54.518Z,43.5
2023-04-15T21:33:55.611Z,47.2
2023-04-15T21:39:59.742Z,44.6
2023-04-15T21:46:39.438Z,47.1
2023-04-15T21:52:45.786Z,35.8
2023-04-15T22:05:55.687Z,35.7
2023-04-15T22:19:25.848Z,40.1
2023-04-15T22:32:59.301Z,42.1
